sensor_id;sensor_type;location;lat;lon;timestamp;P1;durP1;ratioP1;P2;durP2;ratioP2
30934;SDS011;51033;42.648;23.292;2022-12-24T00:01:39;27.77;;;17.02;;
30934;SDS011;51033;42.648;23.292;2022-12-24T00:04:05;25.02;;;16.00;;
30934;SDS011;51033;42.648;23.292;2022-12-24T00:06:30;26.77;;;16.17;;
30934;SDS011;51033;42.648;23.292;2022-12-24T00:08:56;24.70;;;16.23;;
30934;SDS011;51033;42.648;23.292;2022-12-24T00:11:21;24.65;;;16.60;;
30934;SDS011;51033;42.648;23.292;2022-12-24T00:13:47;29.38;;;18.13;;
30934;SDS011;51033;42.648;23.292;2022-12-24T00:16:13;22.27;;;16.13;;
30934;SDS011;51033;42.648;23.292;2022-12-24T00:18:38;27.02;;;16.38;;
30934;SDS011;51033;42.648;23.292;2022-12-24T00:21:04;24.20;;;16.30;;
30934;SDS011;51033;42.648;23.292;2022-12-24T00:23:30;24.02;;;15.70;;
30934;SDS011;51033;42.648;23.292;2022-12-24T00:25:56;25.05;;;16.75;;
30934;SDS011;51033;42.648;23.292;2022-12-24T00:28:21;23.90;;;15.55;;
30934;SDS011;51033;42.648;23.292;2022-12-24T00:30:47;20.90;;;15.30;;
30934;SDS011;51033;42.648;23.292;2022-12-24T00:33:12;20.17;;;14.73;;
30934;SDS011;51033;42.648;23.292;2022-12-24T00:35:38;24.50;;;15.60;;
30934;SDS011;51033;42.648;23.292;2022-12-24T00:38:04;24.27;;;14.00;;
30934;SDS011;51033;42.648;23.292;2022-12-24T00:40:31;19.70;;;14.27;;
30934;SDS011;51033;42.648;23.292;2022-12-24T00:42:57;21.50;;;13.57;;
30934;SDS011;51033;42.648;23.292;2022-12-24T00:45:23;20.55;;;13.68;;
30934;SDS011;51033;42.648;23.292;2022-12-24T00:47:48;23.48;;;13.90;;
30934;SDS011;51033;42.648;23.292;2022-12-24T00:50:14;24.38;;;15.40;;
30934;SDS011;51033;42.648;23.292;2022-12-24T00:52:39;18.17;;;13.82;;
30934;SDS011;51033;42.648;23.292;2022-12-24T00:55:05;23.77;;;14.55;;
30934;SDS011;51033;42.648;23.292;2022-12-24T00:57:30;16.73;;;12.18;;
30934;SDS011;51033;42.648;23.292;2022-12-24T00:59:56;18.65;;;12.82;;
30934;SDS011;51033;42.648;23.292;2022-12-24T01:02:21;16.65;;;11.30;;
30934;SDS011;51033;42.648;23.292;2022-12-24T01:04:47;18.52;;;12.85;;
30934;SDS011;51033;42.648;23.292;2022-12-24T01:07:31;17.55;;;11.57;;
30934;SDS011;51033;42.648;23.292;2022-12-24T01:09:57;18.75;;;12.10;;
30934;SDS011;51033;42.648;23.292;2022-12-24T01:12:22;14.02;;;11.18;;
30934;SDS011;51033;42.648;23.292;2022-12-24T01:14:48;14.25;;;10.68;;
30934;SDS011;51033;42.648;23.292;2022-12-24T01:17:13;15.32;;;11.30;;
30934;SDS011;51033;42.648;23.292;2022-12-24T01:19:39;18.20;;;12.45;;
30934;SDS011;51033;42.648;23.292;2022-12-24T01:22:04;19.15;;;12.90;;
30934;SDS011;51033;42.648;23.292;2022-12-24T01:24:30;17.25;;;11.77;;
30934;SDS011;51033;42.648;23.292;2022-12-24T01:26:55;18.35;;;11.95;;
30934;SDS011;51033;42.648;23.292;2022-12-24T01:29:20;18.65;;;11.48;;
30934;SDS011;51033;42.648;23.292;2022-12-24T01:31:46;17.38;;;12.65;;
30934;SDS011;51033;42.648;23.292;2022-12-24T01:34:11;18.83;;;12.73;;
30934;SDS011;51033;42.648;23.292;2022-12-24T01:36:36;18.83;;;12.35;;
30934;SDS011;51033;42.648;23.292;2022-12-24T01:39:02;17.50;;;12.18;;
30934;SDS011;51033;42.648;23.292;2022-12-24T01:41:28;18.02;;;11.98;;
30934;SDS011;51033;42.648;23.292;2022-12-24T01:44:30;17.85;;;11.10;;
30934;SDS011;51033;42.648;23.292;2022-12-24T01:47:03;16.73;;;11.65;;
30934;SDS011;51033;42.648;23.292;2022-12-24T01:49:30;18.60;;;12.25;;
30934;SDS011;51033;42.648;23.292;2022-12-24T01:52:04;20.33;;;12.00;;
30934;SDS011;51033;42.648;23.292;2022-12-24T01:57:04;17.48;;;10.50;;
30934;SDS011;51033;42.648;23.292;2022-12-24T01:59:33;15.52;;;10.43;;
30934;SDS011;51033;42.648;23.292;2022-12-24T02:02:01;15.32;;;10.85;;
30934;SDS011;51033;42.648;23.292;2022-12-24T02:04:42;17.48;;;11.50;;
30934;SDS011;51033;42.648;23.292;2022-12-24T02:07:12;16.03;;;10.97;;
30934;SDS011;51033;42.648;23.292;2022-12-24T02:09:37;16.02;;;10.80;;
30934;SDS011;51033;42.648;23.292;2022-12-24T02:12:03;14.77;;;10.73;;
30934;SDS011;51033;42.648;23.292;2022-12-24T02:14:30;14.18;;;10.93;;
30934;SDS011;51033;42.648;23.292;2022-12-24T02:25:20;15.30;;;11.40;;
30934;SDS011;51033;42.648;23.292;2022-12-24T02:30:58;13.73;;;9.98;;
30934;SDS011;51033;42.648;23.292;2022-12-24T02:33:35;14.07;;;9.80;;
30934;SDS011;51033;42.648;23.292;2022-12-24T02:39:07;13.95;;;10.35;;
30934;SDS011;51033;42.648;23.292;2022-12-24T02:41:37;12.70;;;9.13;;
30934;SDS011;51033;42.648;23.292;2022-12-24T02:44:26;11.93;;;7.57;;
30934;SDS011;51033;42.648;23.292;2022-12-24T02:46:54;11.15;;;8.65;;
30934;SDS011;51033;42.648;23.292;2022-12-24T02:49:21;11.70;;;8.73;;
30934;SDS011;51033;42.648;23.292;2022-12-24T02:51:46;12.85;;;9.73;;
30934;SDS011;51033;42.648;23.292;2022-12-24T02:54:11;12.77;;;9.43;;
30934;SDS011;51033;42.648;23.292;2022-12-24T03:07:42;15.15;;;9.13;;
30934;SDS011;51033;42.648;23.292;2022-12-24T03:12:45;15.65;;;10.60;;
30934;SDS011;51033;42.648;23.292;2022-12-24T03:15:14;20.10;;;11.32;;
30934;SDS011;51033;42.648;23.292;2022-12-24T03:17:42;15.93;;;10.73;;
30934;SDS011;51033;42.648;23.292;2022-12-24T03:20:11;17.42;;;11.82;;
30934;SDS011;51033;42.648;23.292;2022-12-24T03:22:42;15.02;;;9.95;;
30934;SDS011;51033;42.648;23.292;2022-12-24T03:25:08;12.77;;;9.77;;
30934;SDS011;51033;42.648;23.292;2022-12-24T03:27:33;13.73;;;10.05;;
30934;SDS011;51033;42.648;23.292;2022-12-24T03:30:02;14.45;;;9.10;;
30934;SDS011;51033;42.648;23.292;2022-12-24T03:32:29;14.15;;;9.05;;
30934;SDS011;51033;42.648;23.292;2022-12-24T03:34:56;13.77;;;9.38;;
30934;SDS011;51033;42.648;23.292;2022-12-24T03:37:21;17.13;;;9.32;;
30934;SDS011;51033;42.648;23.292;2022-12-24T03:39:47;11.27;;;8.77;;
30934;SDS011;51033;42.648;23.292;2022-12-24T03:42:13;12.35;;;8.95;;
30934;SDS011;51033;42.648;23.292;2022-12-24T03:44:38;13.15;;;9.75;;
30934;SDS011;51033;42.648;23.292;2022-12-24T03:47:04;25.63;;;10.57;;
30934;SDS011;51033;42.648;23.292;2022-12-24T03:49:29;12.73;;;9.75;;
30934;SDS011;51033;42.648;23.292;2022-12-24T03:51:54;15.00;;;10.80;;
30934;SDS011;51033;42.648;23.292;2022-12-24T03:54:20;13.98;;;10.20;;
30934;SDS011;51033;42.648;23.292;2022-12-24T03:56:45;18.30;;;10.85;;
30934;SDS011;51033;42.648;23.292;2022-12-24T03:59:11;15.43;;;10.52;;
30934;SDS011;51033;42.648;23.292;2022-12-24T04:01:36;16.50;;;11.20;;
30934;SDS011;51033;42.648;23.292;2022-12-24T04:04:01;14.40;;;9.73;;
30934;SDS011;51033;42.648;23.292;2022-12-24T04:06:27;18.02;;;10.43;;
30934;SDS011;51033;42.648;23.292;2022-12-24T04:08:52;14.80;;;10.10;;
30934;SDS011;51033;42.648;23.292;2022-12-24T04:11:18;12.50;;;8.80;;
30934;SDS011;51033;42.648;23.292;2022-12-24T04:13:43;12.10;;;9.43;;
30934;SDS011;51033;42.648;23.292;2022-12-24T04:16:10;12.30;;;9.45;;
30934;SDS011;51033;42.648;23.292;2022-12-24T04:18:38;12.05;;;8.77;;
30934;SDS011;51033;42.648;23.292;2022-12-24T04:21:04;16.75;;;10.45;;
30934;SDS011;51033;42.648;23.292;2022-12-24T04:23:31;14.30;;;10.07;;
30934;SDS011;51033;42.648;23.292;2022-12-24T04:25:59;14.98;;;9.45;;
30934;SDS011;51033;42.648;23.292;2022-12-24T04:28:25;11.80;;;7.80;;
30934;SDS011;51033;42.648;23.292;2022-12-24T04:30:56;13.77;;;8.15;;
30934;SDS011;51033;42.648;23.292;2022-12-24T04:33:32;14.20;;;7.57;;
30934;SDS011;51033;42.648;23.292;2022-12-24T04:35:58;10.82;;;8.77;;
30934;SDS011;51033;42.648;23.292;2022-12-24T04:38:24;14.38;;;10.10;;
30934;SDS011;51033;42.648;23.292;2022-12-24T04:40:59;15.45;;;10.10;;
30934;SDS011;51033;42.648;23.292;2022-12-24T04:43:32;17.17;;;10.20;;
30934;SDS011;51033;42.648;23.292;2022-12-24T04:46:08;18.50;;;11.18;;
30934;SDS011;51033;42.648;23.292;2022-12-24T04:48:35;17.58;;;11.60;;
30934;SDS011;51033;42.648;23.292;2022-12-24T04:51:02;16.85;;;12.18;;
30934;SDS011;51033;42.648;23.292;2022-12-24T04:53:29;16.55;;;10.27;;
30934;SDS011;51033;42.648;23.292;2022-12-24T04:55:55;14.80;;;9.77;;
30934;SDS011;51033;42.648;23.292;2022-12-24T04:58:20;11.77;;;8.18;;
30934;SDS011;51033;42.648;23.292;2022-12-24T05:00:46;14.27;;;9.35;;
30934;SDS011;51033;42.648;23.292;2022-12-24T05:03:11;10.70;;;7.30;;
30934;SDS011;51033;42.648;23.292;2022-12-24T05:05:37;15.88;;;10.65;;
30934;SDS011;51033;42.648;23.292;2022-12-24T05:08:02;19.42;;;11.82;;
30934;SDS011;51033;42.648;23.292;2022-12-24T05:10:27;20.77;;;12.25;;
30934;SDS011;51033;42.648;23.292;2022-12-24T05:12:53;20.85;;;13.65;;
30934;SDS011;51033;42.648;23.292;2022-12-24T05:15:18;22.85;;;15.40;;
30934;SDS011;51033;42.648;23.292;2022-12-24T05:17:44;19.45;;;14.80;;
30934;SDS011;51033;42.648;23.292;2022-12-24T05:20:09;20.65;;;15.13;;
30934;SDS011;51033;42.648;23.292;2022-12-24T05:22:34;23.13;;;17.40;;
30934;SDS011;51033;42.648;23.292;2022-12-24T05:25:19;23.92;;;18.83;;
30934;SDS011;51033;42.648;23.292;2022-12-24T05:28:03;35.17;;;25.95;;
30934;SDS011;51033;42.648;23.292;2022-12-24T05:30:28;36.40;;;25.88;;
30934;SDS011;51033;42.648;23.292;2022-12-24T05:32:54;29.23;;;19.23;;
30934;SDS011;51033;42.648;23.292;2022-12-24T05:35:19;24.58;;;16.63;;
30934;SDS011;51033;42.648;23.292;2022-12-24T05:37:44;27.98;;;19.17;;
30934;SDS011;51033;42.648;23.292;2022-12-24T05:40:10;29.00;;;19.83;;
30934;SDS011;51033;42.648;23.292;2022-12-24T05:42:35;25.95;;;15.95;;
30934;SDS011;51033;42.648;23.292;2022-12-24T05:45:01;25.00;;;16.85;;
30934;SDS011;51033;42.648;23.292;2022-12-24T05:47:26;24.70;;;15.90;;
30934;SDS011;51033;42.648;23.292;2022-12-24T05:49:52;20.50;;;13.75;;
30934;SDS011;51033;42.648;23.292;2022-12-24T05:52:17;26.40;;;16.65;;
30934;SDS011;51033;42.648;23.292;2022-12-24T05:54:42;22.00;;;14.38;;
30934;SDS011;51033;42.648;23.292;2022-12-24T05:57:08;14.52;;;10.43;;
30934;SDS011;51033;42.648;23.292;2022-12-24T05:59:33;17.33;;;12.60;;
30934;SDS011;51033;42.648;23.292;2022-12-24T06:01:59;14.70;;;11.10;;
30934;SDS011;51033;42.648;23.292;2022-12-24T06:04:24;15.48;;;12.35;;
30934;SDS011;51033;42.648;23.292;2022-12-24T06:06:49;19.30;;;13.50;;
30934;SDS011;51033;42.648;23.292;2022-12-24T06:09:15;16.58;;;11.88;;
30934;SDS011;51033;42.648;23.292;2022-12-24T06:11:41;18.83;;;12.77;;
30934;SDS011;51033;42.648;23.292;2022-12-24T06:14:06;20.88;;;13.23;;
30934;SDS011;51033;42.648;23.292;2022-12-24T06:16:32;15.98;;;12.88;;
30934;SDS011;51033;42.648;23.292;2022-12-24T06:18:58;20.63;;;14.40;;
30934;SDS011;51033;42.648;23.292;2022-12-24T06:21:23;20.83;;;13.85;;
30934;SDS011;51033;42.648;23.292;2022-12-24T06:23:49;17.88;;;11.77;;
30934;SDS011;51033;42.648;23.292;2022-12-24T06:26:15;18.90;;;12.27;;
30934;SDS011;51033;42.648;23.292;2022-12-24T06:28:43;19.35;;;14.70;;
30934;SDS011;51033;42.648;23.292;2022-12-24T06:31:11;20.13;;;14.20;;
30934;SDS011;51033;42.648;23.292;2022-12-24T06:33:38;22.98;;;14.35;;
30934;SDS011;51033;42.648;23.292;2022-12-24T06:36:07;22.88;;;16.40;;
30934;SDS011;51033;42.648;23.292;2022-12-24T06:38:33;27.85;;;18.15;;
30934;SDS011;51033;42.648;23.292;2022-12-24T06:40:59;35.58;;;24.45;;
30934;SDS011;51033;42.648;23.292;2022-12-24T06:43:24;33.83;;;23.63;;
30934;SDS011;51033;42.648;23.292;2022-12-24T06:45:50;28.75;;;18.85;;
30934;SDS011;51033;42.648;23.292;2022-12-24T06:48:15;24.25;;;16.60;;
30934;SDS011;51033;42.648;23.292;2022-12-24T06:50:41;23.42;;;15.80;;
30934;SDS011;51033;42.648;23.292;2022-12-24T06:53:07;23.55;;;16.10;;
30934;SDS011;51033;42.648;23.292;2022-12-24T06:55:32;26.40;;;17.52;;
30934;SDS011;51033;42.648;23.292;2022-12-24T06:57:58;30.30;;;19.20;;
30934;SDS011;51033;42.648;23.292;2022-12-24T07:00:23;31.48;;;19.80;;
30934;SDS011;51033;42.648;23.292;2022-12-24T07:02:49;37.22;;;25.05;;
30934;SDS011;51033;42.648;23.292;2022-12-24T07:05:14;33.47;;;21.40;;
30934;SDS011;51033;42.648;23.292;2022-12-24T07:07:42;34.63;;;25.25;;
30934;SDS011;51033;42.648;23.292;2022-12-24T07:10:14;41.42;;;30.60;;
30934;SDS011;51033;42.648;23.292;2022-12-24T07:12:44;42.50;;;29.00;;
30934;SDS011;51033;42.648;23.292;2022-12-24T07:15:11;61.63;;;36.97;;
30934;SDS011;51033;42.648;23.292;2022-12-24T07:17:36;55.00;;;35.50;;
30934;SDS011;51033;42.648;23.292;2022-12-24T07:20:02;42.65;;;26.67;;
30934;SDS011;51033;42.648;23.292;2022-12-24T07:22:29;39.63;;;27.42;;
30934;SDS011;51033;42.648;23.292;2022-12-24T07:24:55;44.75;;;27.50;;
30934;SDS011;51033;42.648;23.292;2022-12-24T07:27:20;43.88;;;28.33;;
30934;SDS011;51033;42.648;23.292;2022-12-24T07:29:45;41.40;;;28.08;;
30934;SDS011;51033;42.648;23.292;2022-12-24T07:32:11;43.88;;;27.50;;
30934;SDS011;51033;42.648;23.292;2022-12-24T07:34:37;40.65;;;29.73;;
30934;SDS011;51033;42.648;23.292;2022-12-24T07:37:03;42.78;;;28.77;;
30934;SDS011;51033;42.648;23.292;2022-12-24T07:39:29;45.97;;;27.02;;
30934;SDS011;51033;42.648;23.292;2022-12-24T07:41:54;39.25;;;27.40;;
30934;SDS011;51033;42.648;23.292;2022-12-24T07:44:20;46.95;;;32.80;;
30934;SDS011;51033;42.648;23.292;2022-12-24T07:46:45;45.30;;;30.70;;
30934;SDS011;51033;42.648;23.292;2022-12-24T07:49:10;40.15;;;26.67;;
30934;SDS011;51033;42.648;23.292;2022-12-24T07:51:36;49.97;;;29.98;;
30934;SDS011;51033;42.648;23.292;2022-12-24T07:54:02;40.30;;;27.20;;
30934;SDS011;51033;42.648;23.292;2022-12-24T07:56:28;42.13;;;26.08;;
30934;SDS011;51033;42.648;23.292;2022-12-24T07:58:54;40.53;;;29.23;;
30934;SDS011;51033;42.648;23.292;2022-12-24T08:01:20;42.80;;;31.92;;
30934;SDS011;51033;42.648;23.292;2022-12-24T08:03:45;42.85;;;31.90;;
30934;SDS011;51033;42.648;23.292;2022-12-24T08:06:10;49.08;;;32.65;;
30934;SDS011;51033;42.648;23.292;2022-12-24T08:08:36;46.80;;;31.15;;
30934;SDS011;51033;42.648;23.292;2022-12-24T08:11:03;54.40;;;38.05;;
30934;SDS011;51033;42.648;23.292;2022-12-24T08:13:31;45.90;;;32.25;;
30934;SDS011;51033;42.648;23.292;2022-12-24T08:15:56;41.90;;;29.33;;
30934;SDS011;51033;42.648;23.292;2022-12-24T08:18:22;42.58;;;30.35;;
30934;SDS011;51033;42.648;23.292;2022-12-24T08:20:47;40.90;;;31.25;;
30934;SDS011;51033;42.648;23.292;2022-12-24T08:23:13;46.95;;;31.35;;
30934;SDS011;51033;42.648;23.292;2022-12-24T08:25:41;43.25;;;31.50;;
30934;SDS011;51033;42.648;23.292;2022-12-24T08:28:08;51.28;;;35.03;;
30934;SDS011;51033;42.648;23.292;2022-12-24T08:30:34;52.38;;;35.05;;
30934;SDS011;51033;42.648;23.292;2022-12-24T08:32:59;54.33;;;35.58;;
30934;SDS011;51033;42.648;23.292;2022-12-24T08:35:25;87.55;;;54.72;;
30934;SDS011;51033;42.648;23.292;2022-12-24T08:37:50;51.10;;;35.38;;
30934;SDS011;51033;42.648;23.292;2022-12-24T08:40:15;52.53;;;34.90;;
30934;SDS011;51033;42.648;23.292;2022-12-24T08:42:41;48.10;;;33.40;;
30934;SDS011;51033;42.648;23.292;2022-12-24T08:45:06;63.83;;;42.50;;
30934;SDS011;51033;42.648;23.292;2022-12-24T08:47:33;54.95;;;36.42;;
30934;SDS011;51033;42.648;23.292;2022-12-24T08:49:58;50.80;;;36.50;;
30934;SDS011;51033;42.648;23.292;2022-12-24T08:52:24;52.40;;;37.28;;
30934;SDS011;51033;42.648;23.292;2022-12-24T08:54:49;46.35;;;32.97;;
30934;SDS011;51033;42.648;23.292;2022-12-24T08:57:14;47.22;;;32.33;;
30934;SDS011;51033;42.648;23.292;2022-12-24T08:59:40;51.22;;;32.53;;
30934;SDS011;51033;42.648;23.292;2022-12-24T09:02:05;49.85;;;32.53;;
30934;SDS011;51033;42.648;23.292;2022-12-24T09:04:31;53.85;;;33.83;;
30934;SDS011;51033;42.648;23.292;2022-12-24T09:06:56;49.22;;;32.65;;
30934;SDS011;51033;42.648;23.292;2022-12-24T09:09:21;52.47;;;33.17;;
30934;SDS011;51033;42.648;23.292;2022-12-24T09:11:47;50.90;;;32.60;;
30934;SDS011;51033;42.648;23.292;2022-12-24T09:14:12;51.03;;;34.28;;
30934;SDS011;51033;42.648;23.292;2022-12-24T09:16:38;51.90;;;35.70;;
30934;SDS011;51033;42.648;23.292;2022-12-24T09:19:03;53.10;;;35.38;;
30934;SDS011;51033;42.648;23.292;2022-12-24T09:21:28;49.45;;;37.20;;
30934;SDS011;51033;42.648;23.292;2022-12-24T09:23:54;47.10;;;32.67;;
30934;SDS011;51033;42.648;23.292;2022-12-24T09:26:23;44.25;;;33.42;;
30934;SDS011;51033;42.648;23.292;2022-12-24T09:28:50;48.20;;;33.70;;
30934;SDS011;51033;42.648;23.292;2022-12-24T09:31:16;46.53;;;31.58;;
30934;SDS011;51033;42.648;23.292;2022-12-24T09:33:43;49.03;;;32.97;;
30934;SDS011;51033;42.648;23.292;2022-12-24T09:36:10;50.38;;;35.65;;
30934;SDS011;51033;42.648;23.292;2022-12-24T09:38:36;51.08;;;35.05;;
30934;SDS011;51033;42.648;23.292;2022-12-24T09:41:10;52.90;;;36.83;;
30934;SDS011;51033;42.648;23.292;2022-12-24T09:43:39;47.97;;;34.40;;
30934;SDS011;51033;42.648;23.292;2022-12-24T09:49:14;42.90;;;32.15;;
30934;SDS011;51033;42.648;23.292;2022-12-24T09:51:45;55.07;;;35.67;;
30934;SDS011;51033;42.648;23.292;2022-12-24T09:54:34;58.20;;;36.38;;
30934;SDS011;51033;42.648;23.292;2022-12-24T09:57:05;59.28;;;37.65;;
30934;SDS011;51033;42.648;23.292;2022-12-24T09:59:42;55.47;;;38.15;;
30934;SDS011;51033;42.648;23.292;2022-12-24T10:02:13;52.33;;;38.05;;
30934;SDS011;51033;42.648;23.292;2022-12-24T10:04:41;52.35;;;36.25;;
30934;SDS011;51033;42.648;23.292;2022-12-24T10:20:53;58.33;;;38.58;;
30934;SDS011;51033;42.648;23.292;2022-12-24T10:28:52;48.90;;;35.00;;
30934;SDS011;51033;42.648;23.292;2022-12-24T10:31:25;50.17;;;33.00;;
30934;SDS011;51033;42.648;23.292;2022-12-24T10:34:00;54.38;;;33.75;;
30934;SDS011;51033;42.648;23.292;2022-12-24T10:36:27;45.72;;;31.23;;
30934;SDS011;51033;42.648;23.292;2022-12-24T10:38:54;46.67;;;31.80;;
30934;SDS011;51033;42.648;23.292;2022-12-24T10:41:20;50.80;;;32.17;;
30934;SDS011;51033;42.648;23.292;2022-12-24T10:43:48;47.38;;;32.20;;
30934;SDS011;51033;42.648;23.292;2022-12-24T10:46:20;87.93;;;54.55;;
30934;SDS011;51033;42.648;23.292;2022-12-24T10:48:50;95.32;;;62.17;;
30934;SDS011;51033;42.648;23.292;2022-12-24T10:51:20;85.85;;;58.10;;
30934;SDS011;51033;42.648;23.292;2022-12-24T10:53:59;95.05;;;62.15;;
30934;SDS011;51033;42.648;23.292;2022-12-24T10:56:30;104.13;;;66.90;;
30934;SDS011;51033;42.648;23.292;2022-12-24T10:58:56;103.32;;;68.30;;
30934;SDS011;51033;42.648;23.292;2022-12-24T11:04:12;107.47;;;69.70;;
30934;SDS011;51033;42.648;23.292;2022-12-24T11:07:01;101.20;;;69.75;;
30934;SDS011;51033;42.648;23.292;2022-12-24T11:09:32;114.07;;;71.22;;
30934;SDS011;51033;42.648;23.292;2022-12-24T11:12:02;108.60;;;72.28;;
30934;SDS011;51033;42.648;23.292;2022-12-24T11:14:33;116.35;;;72.35;;
30934;SDS011;51033;42.648;23.292;2022-12-24T11:17:01;102.03;;;71.32;;
30934;SDS011;51033;42.648;23.292;2022-12-24T11:19:33;110.00;;;72.32;;
30934;SDS011;51033;42.648;23.292;2022-12-24T11:22:04;108.93;;;73.05;;
30934;SDS011;51033;42.648;23.292;2022-12-24T11:24:33;115.93;;;74.68;;
30934;SDS011;51033;42.648;23.292;2022-12-24T11:32:49;112.25;;;70.15;;
30934;SDS011;51033;42.648;23.292;2022-12-24T11:35:38;109.13;;;71.85;;
30934;SDS011;51033;42.648;23.292;2022-12-24T11:38:08;105.80;;;68.47;;
30934;SDS011;51033;42.648;23.292;2022-12-24T11:40:37;111.35;;;72.80;;
30934;SDS011;51033;42.648;23.292;2022-12-24T11:43:05;104.88;;;70.53;;
30934;SDS011;51033;42.648;23.292;2022-12-24T11:45:37;101.97;;;69.78;;
30934;SDS011;51033;42.648;23.292;2022-12-24T11:48:21;104.90;;;70.65;;
30934;SDS011;51033;42.648;23.292;2022-12-24T11:51:00;93.00;;;65.07;;
30934;SDS011;51033;42.648;23.292;2022-12-24T11:53:37;93.50;;;62.50;;
30934;SDS011;51033;42.648;23.292;2022-12-24T11:56:12;90.35;;;60.22;;
30934;SDS011;51033;42.648;23.292;2022-12-24T11:59:08;91.60;;;58.33;;
30934;SDS011;51033;42.648;23.292;2022-12-24T12:01:43;94.20;;;60.17;;
30934;SDS011;51033;42.648;23.292;2022-12-24T12:06:53;90.10;;;60.30;;
30934;SDS011;51033;42.648;23.292;2022-12-24T12:09:27;93.50;;;60.67;;
30934;SDS011;51033;42.648;23.292;2022-12-24T12:11:57;96.53;;;66.00;;
30934;SDS011;51033;42.648;23.292;2022-12-24T12:14:34;104.68;;;68.75;;
30934;SDS011;51033;42.648;23.292;2022-12-24T12:17:18;106.30;;;70.32;;
30934;SDS011;51033;42.648;23.292;2022-12-24T12:19:50;102.25;;;68.20;;
30934;SDS011;51033;42.648;23.292;2022-12-24T12:25:31;103.57;;;71.20;;
30934;SDS011;51033;42.648;23.292;2022-12-24T12:28:01;107.13;;;72.95;;
30934;SDS011;51033;42.648;23.292;2022-12-24T12:30:32;99.50;;;70.97;;
30934;SDS011;51033;42.648;23.292;2022-12-24T12:35:52;98.28;;;66.68;;
30934;SDS011;51033;42.648;23.292;2022-12-24T12:38:22;97.82;;;67.75;;
30934;SDS011;51033;42.648;23.292;2022-12-24T12:41:02;98.43;;;67.60;;
30934;SDS011;51033;42.648;23.292;2022-12-24T12:48:57;108.07;;;71.90;;
30934;SDS011;51033;42.648;23.292;2022-12-24T12:51:31;103.55;;;73.18;;
30934;SDS011;51033;42.648;23.292;2022-12-24T12:56:51;102.53;;;74.32;;
30934;SDS011;51033;42.648;23.292;2022-12-24T12:59:27;123.80;;;81.40;;
30934;SDS011;51033;42.648;23.292;2022-12-24T13:04:49;117.55;;;78.57;;
30934;SDS011;51033;42.648;23.292;2022-12-24T13:10:24;116.70;;;78.88;;
30934;SDS011;51033;42.648;23.292;2022-12-24T13:21:32;113.28;;;81.00;;
30934;SDS011;51033;42.648;23.292;2022-12-24T13:24:18;126.40;;;82.28;;
30934;SDS011;51033;42.648;23.292;2022-12-24T13:34:46;126.60;;;83.07;;
30934;SDS011;51033;42.648;23.292;2022-12-24T13:37:31;121.45;;;83.60;;
30934;SDS011;51033;42.648;23.292;2022-12-24T13:48:00;110.20;;;80.25;;
30934;SDS011;51033;42.648;23.292;2022-12-24T13:50:50;109.13;;;82.90;;
30934;SDS011;51033;42.648;23.292;2022-12-24T13:58:37;104.20;;;73.93;;
30934;SDS011;51033;42.648;23.292;2022-12-24T14:01:09;96.05;;;67.35;;
30934;SDS011;51033;42.648;23.292;2022-12-24T14:03:44;92.30;;;67.32;;
30934;SDS011;51033;42.648;23.292;2022-12-24T14:08:44;98.93;;;68.68;;
30934;SDS011;51033;42.648;23.292;2022-12-24T14:18:47;154.82;;;103.32;;
30934;SDS011;51033;42.648;23.292;2022-12-24T14:21:22;124.05;;;82.93;;
30934;SDS011;51033;42.648;23.292;2022-12-24T14:26:20;119.07;;;82.38;;
30934;SDS011;51033;42.648;23.292;2022-12-24T14:28:55;98.20;;;69.30;;
30934;SDS011;51033;42.648;23.292;2022-12-24T14:31:23;98.43;;;64.25;;
30934;SDS011;51033;42.648;23.292;2022-12-24T14:33:49;90.32;;;60.03;;
30934;SDS011;51033;42.648;23.292;2022-12-24T14:36:17;66.75;;;44.75;;
30934;SDS011;51033;42.648;23.292;2022-12-24T14:38:46;42.00;;;29.33;;
30934;SDS011;51033;42.648;23.292;2022-12-24T14:41:18;31.77;;;24.63;;
30934;SDS011;51033;42.648;23.292;2022-12-24T14:46:47;42.90;;;24.08;;
30934;SDS011;51033;42.648;23.292;2022-12-24T14:52:33;18.80;;;14.15;;
30934;SDS011;51033;42.648;23.292;2022-12-24T14:55:25;33.35;;;17.50;;
30934;SDS011;51033;42.648;23.292;2022-12-24T15:00:45;24.23;;;16.85;;
30934;SDS011;51033;42.648;23.292;2022-12-24T15:03:12;23.10;;;16.52;;
30934;SDS011;51033;42.648;23.292;2022-12-24T15:05:40;31.30;;;21.30;;
30934;SDS011;51033;42.648;23.292;2022-12-24T15:08:11;21.20;;;16.67;;
30934;SDS011;51033;42.648;23.292;2022-12-24T15:10:45;23.73;;;17.15;;
30934;SDS011;51033;42.648;23.292;2022-12-24T15:13:23;43.60;;;31.17;;
30934;SDS011;51033;42.648;23.292;2022-12-24T15:18:31;42.00;;;30.90;;
30934;SDS011;51033;42.648;23.292;2022-12-24T15:21:01;45.72;;;34.38;;
30934;SDS011;51033;42.648;23.292;2022-12-24T15:23:30;40.95;;;30.42;;
30934;SDS011;51033;42.648;23.292;2022-12-24T15:28:40;27.13;;;20.60;;
30934;SDS011;51033;42.648;23.292;2022-12-24T15:31:06;27.88;;;20.83;;
30934;SDS011;51033;42.648;23.292;2022-12-24T15:33:43;32.60;;;24.48;;
30934;SDS011;51033;42.648;23.292;2022-12-24T15:36:10;24.35;;;19.00;;
30934;SDS011;51033;42.648;23.292;2022-12-24T15:38:38;29.77;;;22.55;;
30934;SDS011;51033;42.648;23.292;2022-12-24T15:41:26;45.42;;;30.23;;
30934;SDS011;51033;42.648;23.292;2022-12-24T15:43:59;47.10;;;34.30;;
30934;SDS011;51033;42.648;23.292;2022-12-24T15:46:27;27.48;;;21.10;;
30934;SDS011;51033;42.648;23.292;2022-12-24T15:48:55;25.30;;;19.33;;
30934;SDS011;51033;42.648;23.292;2022-12-24T15:51:32;18.55;;;14.02;;
30934;SDS011;51033;42.648;23.292;2022-12-24T15:54:04;18.65;;;13.75;;
30934;SDS011;51033;42.648;23.292;2022-12-24T15:56:35;15.40;;;12.85;;
30934;SDS011;51033;42.648;23.292;2022-12-24T15:59:37;15.13;;;10.77;;
30934;SDS011;51033;42.648;23.292;2022-12-24T16:07:57;13.73;;;7.68;;
30934;SDS011;51033;42.648;23.292;2022-12-24T16:10:46;11.05;;;8.55;;
30934;SDS011;51033;42.648;23.292;2022-12-24T16:16:10;6.40;;;4.88;;
30934;SDS011;51033;42.648;23.292;2022-12-24T16:18:44;11.48;;;10.05;;
30934;SDS011;51033;42.648;23.292;2022-12-24T16:21:24;12.05;;;8.27;;
30934;SDS011;51033;42.648;23.292;2022-12-24T16:23:53;12.25;;;10.95;;
30934;SDS011;51033;42.648;23.292;2022-12-24T16:26:20;11.60;;;9.57;;
30934;SDS011;51033;42.648;23.292;2022-12-24T16:28:46;8.27;;;6.90;;
30934;SDS011;51033;42.648;23.292;2022-12-24T16:31:16;8.75;;;7.22;;
30934;SDS011;51033;42.648;23.292;2022-12-24T16:33:43;11.65;;;10.43;;
30934;SDS011;51033;42.648;23.292;2022-12-24T16:36:09;12.57;;;9.80;;
30934;SDS011;51033;42.648;23.292;2022-12-24T16:38:34;12.75;;;11.18;;
30934;SDS011;51033;42.648;23.292;2022-12-24T16:41:20;14.30;;;10.13;;
30934;SDS011;51033;42.648;23.292;2022-12-24T16:43:46;8.00;;;6.10;;
30934;SDS011;51033;42.648;23.292;2022-12-24T16:46:14;19.25;;;13.10;;
30934;SDS011;51033;42.648;23.292;2022-12-24T16:48:40;10.43;;;9.32;;